sensor_id;sensor_type;location;lat;lon;timestamp;temperature;humidity
64939;DHT22;51453;47.738;7.420;2023-04-03T00:01:05;5.20;99.90
64939;DHT22;51453;47.738;7.420;2023-04-03T00:03:31;5.20;99.90
64939;DHT22;51453;47.738;7.420;2023-04-03T00:05:57;5.10;99.90
64939;DHT22;51453;47.738;7.420;2023-04-03T00:08:22;5.00;99.90
64939;DHT22;51453;47.738;7.420;2023-04-03T00:10:48;5.00;99.90
64939;DHT22;51453;47.738;7.420;2023-04-03T00:13:14;5.00;99.90
64939;DHT22;51453;47.738;7.420;2023-04-03T00:15:41;5.00;99.90
64939;DHT22;51453;47.738;7.420;2023-04-03T00:18:07;5.00;99.90
64939;DHT22;51453;47.738;7.420;2023-04-03T00:20:33;5.00;99.90
64939;DHT22;51453;47.738;7.420;2023-04-03T00:22:59;4.90;99.90
64939;DHT22;51453;47.738;7.420;2023-04-03T00:25:25;4.90;99.90
64939;DHT22;51453;47.738;7.420;2023-04-03T00:27:51;4.80;99.90
64939;DHT22;51453;47.738;7.420;2023-04-03T00:30:18;4.80;99.90
64939;DHT22;51453;47.738;7.420;2023-04-03T00:32:44;4.80;99.90
64939;DHT22;51453;47.738;7.420;2023-04-03T00:35:10;4.80;99.90
64939;DHT22;51453;47.738;7.420;2023-04-03T00:37:36;4.70;99.90
64939;DHT22;51453;47.738;7.420;2023-04-03T00:40:03;4.70;99.90
64939;DHT22;51453;47.738;7.420;2023-04-03T00:42:29;4.60;99.90
64939;DHT22;51453;47.738;7.420;2023-04-03T00:47:25;4.70;99.90
64939;DHT22;51453;47.738;7.420;2023-04-03T00:49:52;4.60;99.90
64939;DHT22;51453;47.738;7.420;2023-04-03T00:52:21;4.60;99.90
64939;DHT22;51453;47.738;7.420;2023-04-03T00:54:50;4.60;99.90
64939;DHT22;51453;47.738;7.420;2023-04-03T00:57:17;4.50;99.90
64939;DHT22;51453;47.738;7.420;2023-04-03T00:59:48;4.50;99.90
64939;DHT22;51453;47.738;7.420;2023-04-03T01:02:14;4.50;99.90
64939;DHT22;51453;47.738;7.420;2023-04-03T01:04:41;4.50;99.90
64939;DHT22;51453;47.738;7.420;2023-04-03T01:07:16;4.50;99.90
64939;DHT22;51453;47.738;7.420;2023-04-03T01:09:45;4.50;99.90
64939;DHT22;51453;47.738;7.420;2023-04-03T01:14:44;4.50;99.90
64939;DHT22;51453;47.738;7.420;2023-04-03T01:25:32;4.40;99.90
64939;DHT22;51453;47.738;7.420;2023-04-03T01:27:58;4.50;99.90
64939;DHT22;51453;47.738;7.420;2023-04-03T01:30:32;4.50;99.90
64939;DHT22;51453;47.738;7.420;2023-04-03T01:32:58;4.50;99.90
64939;DHT22;51453;47.738;7.420;2023-04-03T01:35:23;4.50;99.90
64939;DHT22;51453;47.738;7.420;2023-04-03T01:37:49;4.50;99.90
64939;DHT22;51453;47.738;7.420;2023-04-03T01:40:15;4.50;99.90
64939;DHT22;51453;47.738;7.420;2023-04-03T01:42:40;4.50;99.90
64939;DHT22;51453;47.738;7.420;2023-04-03T01:45:06;4.50;99.90
64939;DHT22;51453;47.738;7.420;2023-04-03T01:47:32;4.50;99.90
64939;DHT22;51453;47.738;7.420;2023-04-03T01:49:58;4.40;99.90
64939;DHT22;51453;47.738;7.420;2023-04-03T01:52:23;4.50;99.90
64939;DHT22;51453;47.738;7.420;2023-04-03T01:54:49;4.40;99.90
64939;DHT22;51453;47.738;7.420;2023-04-03T01:57:16;4.40;99.90
64939;DHT22;51453;47.738;7.420;2023-04-03T01:59:42;4.40;99.90
64939;DHT22;51453;47.738;7.420;2023-04-03T02:02:07;4.40;99.90
64939;DHT22;51453;47.738;7.420;2023-04-03T02:04:33;4.40;99.90
64939;DHT22;51453;47.738;7.420;2023-04-03T02:06:59;4.40;99.90
64939;DHT22;51453;47.738;7.420;2023-04-03T02:09:24;4.40;99.90
64939;DHT22;51453;47.738;7.420;2023-04-03T02:11:52;4.40;99.90
64939;DHT22;51453;47.738;7.420;2023-04-03T02:14:17;4.30;99.90
64939;DHT22;51453;47.738;7.420;2023-04-03T02:16:43;4.30;99.90
64939;DHT22;51453;47.738;7.420;2023-04-03T02:19:09;4.30;99.90
64939;DHT22;51453;47.738;7.420;2023-04-03T02:21:34;4.30;99.90
64939;DHT22;51453;47.738;7.420;2023-04-03T02:24:00;4.30;99.90
64939;DHT22;51453;47.738;7.420;2023-04-03T02:26:26;4.30;99.90
64939;DHT22;51453;47.738;7.420;2023-04-03T02:28:52;4.30;99.90
64939;DHT22;51453;47.738;7.420;2023-04-03T02:31:17;4.30;99.90
64939;DHT22;51453;47.738;7.420;2023-04-03T02:33:43;4.30;99.90
64939;DHT22;51453;47.738;7.420;2023-04-03T02:36:09;4.30;99.90
64939;DHT22;51453;47.738;7.420;2023-04-03T02:38:35;4.30;99.90
64939;DHT22;51453;47.738;7.420;2023-04-03T02:41:06;4.30;99.90
64939;DHT22;51453;47.738;7.420;2023-04-03T02:43:32;4.30;99.90
64939;DHT22;51453;47.738;7.420;2023-04-03T02:45:58;4.20;99.90
64939;DHT22;51453;47.738;7.420;2023-04-03T02:48:24;4.20;99.90
64939;DHT22;51453;47.738;7.420;2023-04-03T02:50:50;4.20;99.90
64939;DHT22;51453;47.738;7.420;2023-04-03T02:53:16;4.20;99.90
64939;DHT22;51453;47.738;7.420;2023-04-03T02:55:42;4.20;99.90
64939;DHT22;51453;47.738;7.420;2023-04-03T02:58:07;4.20;99.90
64939;DHT22;51453;47.738;7.420;2023-04-03T03:00:34;4.20;99.90
64939;DHT22;51453;47.738;7.420;2023-04-03T03:02:59;4.20;99.90
64939;DHT22;51453;47.738;7.420;2023-04-03T03:05:26;4.20;99.90
64939;DHT22;51453;47.738;7.420;2023-04-03T03:07:52;4.20;99.90
64939;DHT22;51453;47.738;7.420;2023-04-03T03:10:19;4.20;99.90
64939;DHT22;51453;47.738;7.420;2023-04-03T03:12:45;4.20;99.90
64939;DHT22;51453;47.738;7.420;2023-04-03T03:15:11;4.20;99.90
64939;DHT22;51453;47.738;7.420;2023-04-03T03:17:37;4.10;99.90
64939;DHT22;51453;47.738;7.420;2023-04-03T03:20:04;4.20;99.90
64939;DHT22;51453;47.738;7.420;2023-04-03T03:22:30;4.10;99.90
64939;DHT22;51453;47.738;7.420;2023-04-03T03:24:56;4.10;99.90
64939;DHT22;51453;47.738;7.420;2023-04-03T03:27:21;4.20;99.90
64939;DHT22;51453;47.738;7.420;2023-04-03T03:29:47;4.20;99.90
64939;DHT22;51453;47.738;7.420;2023-04-03T03:32:13;4.10;99.90
64939;DHT22;51453;47.738;7.420;2023-04-03T03:34:38;4.10;99.90
64939;DHT22;51453;47.738;7.420;2023-04-03T03:37:04;4.10;99.90
64939;DHT22;51453;47.738;7.420;2023-04-03T03:39:30;4.10;99.90
64939;DHT22;51453;47.738;7.420;2023-04-03T03:41:55;4.10;99.90
64939;DHT22;51453;47.738;7.420;2023-04-03T03:44:21;4.10;99.90
64939;DHT22;51453;47.738;7.420;2023-04-03T03:46:47;4.10;99.90
64939;DHT22;51453;47.738;7.420;2023-04-03T03:49:12;4.10;99.90
64939;DHT22;51453;47.738;7.420;2023-04-03T03:51:39;4.10;99.90
64939;DHT22;51453;47.738;7.420;2023-04-03T03:54:05;4.10;99.90
64939;DHT22;51453;47.738;7.420;2023-04-03T03:56:31;4.10;99.90
64939;DHT22;51453;47.738;7.420;2023-04-03T03:58:57;4.10;99.90
64939;DHT22;51453;47.738;7.420;2023-04-03T04:01:23;4.10;99.90
64939;DHT22;51453;47.738;7.420;2023-04-03T04:03:50;4.10;99.90
64939;DHT22;51453;47.738;7.420;2023-04-03T04:06:16;4.10;99.90
64939;DHT22;51453;47.738;7.420;2023-04-03T04:08:42;4.10;99.90
64939;DHT22;51453;47.738;7.420;2023-04-03T04:11:08;4.10;99.90
64939;DHT22;51453;47.738;7.420;2023-04-03T04:13:33;4.10;99.90
64939;DHT22;51453;47.738;7.420;2023-04-03T04:15:59;4.00;99.90
64939;DHT22;51453;47.738;7.420;2023-04-03T04:18:25;4.00;99.90
64939;DHT22;51453;47.738;7.420;2023-04-03T04:20:51;3.90;99.90
64939;DHT22;51453;47.738;7.420;2023-04-03T04:23:17;3.90;99.90
64939;DHT22;51453;47.738;7.420;2023-04-03T04:25:48;3.80;99.90
64939;DHT22;51453;47.738;7.420;2023-04-03T04:28:14;3.80;99.90
64939;DHT22;51453;47.738;7.420;2023-04-03T04:30:40;3.80;99.90
64939;DHT22;51453;47.738;7.420;2023-04-03T04:33:06;3.80;99.90
64939;DHT22;51453;47.738;7.420;2023-04-03T04:35:32;3.80;99.90
64939;DHT22;51453;47.738;7.420;2023-04-03T04:37:58;3.80;99.90
64939;DHT22;51453;47.738;7.420;2023-04-03T04:40:25;3.70;99.90
64939;DHT22;51453;47.738;7.420;2023-04-03T04:42:50;3.70;99.90
64939;DHT22;51453;47.738;7.420;2023-04-03T04:45:16;3.70;99.90
64939;DHT22;51453;47.738;7.420;2023-04-03T04:47:42;3.80;99.90
64939;DHT22;51453;47.738;7.420;2023-04-03T04:50:08;3.70;99.90
64939;DHT22;51453;47.738;7.420;2023-04-03T04:52:34;3.80;99.90
64939;DHT22;51453;47.738;7.420;2023-04-03T04:54:59;3.70;99.90
64939;DHT22;51453;47.738;7.420;2023-04-03T04:57:25;3.80;99.90
64939;DHT22;51453;47.738;7.420;2023-04-03T04:59:51;3.70;99.90
64939;DHT22;51453;47.738;7.420;2023-04-03T05:02:16;3.80;99.90
64939;DHT22;51453;47.738;7.420;2023-04-03T05:04:42;3.80;99.90
64939;DHT22;51453;47.738;7.420;2023-04-03T05:07:08;3.80;99.90
64939;DHT22;51453;47.738;7.420;2023-04-03T05:09:33;3.80;99.90
64939;DHT22;51453;47.738;7.420;2023-04-03T05:11:59;3.80;99.90
64939;DHT22;51453;47.738;7.420;2023-04-03T05:14:25;3.80;99.90
64939;DHT22;51453;47.738;7.420;2023-04-03T05:16:51;3.80;99.90
64939;DHT22;51453;47.738;7.420;2023-04-03T05:19:20;3.70;99.90
64939;DHT22;51453;47.738;7.420;2023-04-03T05:21:47;3.70;99.90
64939;DHT22;51453;47.738;7.420;2023-04-03T05:24:14;3.70;99.90
64939;DHT22;51453;47.738;7.420;2023-04-03T05:26:40;3.80;99.90
64939;DHT22;51453;47.738;7.420;2023-04-03T05:29:06;3.80;99.90
64939;DHT22;51453;47.738;7.420;2023-04-03T05:31:31;3.70;99.90
64939;DHT22;51453;47.738;7.420;2023-04-03T05:33:57;3.80;99.90
64939;DHT22;51453;47.738;7.420;2023-04-03T05:36:23;3.80;99.90
64939;DHT22;51453;47.738;7.420;2023-04-03T05:38:51;3.70;99.90
64939;DHT22;51453;47.738;7.420;2023-04-03T05:41:18;3.60;99.90
64939;DHT22;51453;47.738;7.420;2023-04-03T05:43:44;3.70;99.90
64939;DHT22;51453;47.738;7.420;2023-04-03T05:46:11;3.60;99.90
64939;DHT22;51453;47.738;7.420;2023-04-03T05:48:37;3.60;99.90
64939;DHT22;51453;47.738;7.420;2023-04-03T05:51:03;3.50;99.90
64939;DHT22;51453;47.738;7.420;2023-04-03T05:53:31;3.60;99.90
64939;DHT22;51453;47.738;7.420;2023-04-03T05:55:58;3.50;99.90
64939;DHT22;51453;47.738;7.420;2023-04-03T05:58:24;3.50;99.90
64939;DHT22;51453;47.738;7.420;2023-04-03T06:00:49;3.50;99.90
64939;DHT22;51453;47.738;7.420;2023-04-03T06:03:15;3.60;99.90
64939;DHT22;51453;47.738;7.420;2023-04-03T06:05:43;3.60;99.90
64939;DHT22;51453;47.738;7.420;2023-04-03T06:08:08;3.50;99.90
64939;DHT22;51453;47.738;7.420;2023-04-03T06:10:35;3.50;99.90
64939;DHT22;51453;47.738;7.420;2023-04-03T06:13:01;3.50;99.90
64939;DHT22;51453;47.738;7.420;2023-04-03T06:15:26;3.50;99.90
64939;DHT22;51453;47.738;7.420;2023-04-03T06:17:52;3.50;99.90
64939;DHT22;51453;47.738;7.420;2023-04-03T06:20:18;3.60;99.90
64939;DHT22;51453;47.738;7.420;2023-04-03T06:22:43;3.60;99.90
64939;DHT22;51453;47.738;7.420;2023-04-03T06:25:09;3.60;99.90
64939;DHT22;51453;47.738;7.420;2023-04-03T06:27:35;3.60;99.90
64939;DHT22;51453;47.738;7.420;2023-04-03T06:30:05;3.70;99.90
64939;DHT22;51453;47.738;7.420;2023-04-03T06:32:31;3.70;99.90
64939;DHT22;51453;47.738;7.420;2023-04-03T06:34:57;3.70;99.90
64939;DHT22;51453;47.738;7.420;2023-04-03T06:37:23;3.80;99.90
64939;DHT22;51453;47.738;7.420;2023-04-03T06:39:51;3.70;99.90
64939;DHT22;51453;47.738;7.420;2023-04-03T06:42:17;3.80;99.90
64939;DHT22;51453;47.738;7.420;2023-04-03T06:44:43;3.80;99.90
64939;DHT22;51453;47.738;7.420;2023-04-03T06:47:13;3.70;99.90
64939;DHT22;51453;47.738;7.420;2023-04-03T06:49:39;3.80;99.90
64939;DHT22;51453;47.738;7.420;2023-04-03T06:52:05;3.80;99.90
64939;DHT22;51453;47.738;7.420;2023-04-03T06:54:31;3.90;99.90
64939;DHT22;51453;47.738;7.420;2023-04-03T06:56:57;3.80;99.90
64939;DHT22;51453;47.738;7.420;2023-04-03T06:59:23;3.90;99.90
64939;DHT22;51453;47.738;7.420;2023-04-03T07:01:49;3.90;99.90
64939;DHT22;51453;47.738;7.420;2023-04-03T07:04:15;3.90;99.90
64939;DHT22;51453;47.738;7.420;2023-04-03T07:06:41;3.90;99.90
64939;DHT22;51453;47.738;7.420;2023-04-03T07:09:08;3.90;99.90
64939;DHT22;51453;47.738;7.420;2023-04-03T07:11:34;4.00;99.90
64939;DHT22;51453;47.738;7.420;2023-04-03T07:14:01;4.00;99.90
64939;DHT22;51453;47.738;7.420;2023-04-03T07:16:27;4.00;99.90
64939;DHT22;51453;47.738;7.420;2023-04-03T07:18:53;4.10;99.90
64939;DHT22;51453;47.738;7.420;2023-04-03T07:21:18;4.10;99.90
64939;DHT22;51453;47.738;7.420;2023-04-03T07:23:44;4.10;99.90
64939;DHT22;51453;47.738;7.420;2023-04-03T07:26:10;4.20;99.90
64939;DHT22;51453;47.738;7.420;2023-04-03T07:28:36;4.10;99.90
64939;DHT22;51453;47.738;7.420;2023-04-03T07:31:11;4.10;99.90
64939;DHT22;51453;47.738;7.420;2023-04-03T07:33:39;4.20;99.90
64939;DHT22;51453;47.738;7.420;2023-04-03T07:36:06;4.20;99.90
64939;DHT22;51453;47.738;7.420;2023-04-03T07:38:33;4.20;99.90
64939;DHT22;51453;47.738;7.420;2023-04-03T07:40:59;4.30;99.90
64939;DHT22;51453;47.738;7.420;2023-04-03T07:43:25;4.40;99.90
64939;DHT22;51453;47.738;7.420;2023-04-03T07:45:51;4.40;99.90
64939;DHT22;51453;47.738;7.420;2023-04-03T07:48:22;4.40;99.90
64939;DHT22;51453;47.738;7.420;2023-04-03T07:50:47;4.50;99.90
64939;DHT22;51453;47.738;7.420;2023-04-03T07:53:13;4.50;99.90
64939;DHT22;51453;47.738;7.420;2023-04-03T07:55:39;4.50;99.90
64939;DHT22;51453;47.738;7.420;2023-04-03T07:58:13;4.60;99.90
64939;DHT22;51453;47.738;7.420;2023-04-03T08:00:46;4.50;99.90
64939;DHT22;51453;47.738;7.420;2023-04-03T08:03:12;4.60;99.90
64939;DHT22;51453;47.738;7.420;2023-04-03T08:05:40;4.80;99.90
64939;DHT22;51453;47.738;7.420;2023-04-03T08:08:07;4.80;99.90
64939;DHT22;51453;47.738;7.420;2023-04-03T08:10:32;4.90;99.90
64939;DHT22;51453;47.738;7.420;2023-04-03T08:12:59;5.00;99.90
64939;DHT22;51453;47.738;7.420;2023-04-03T08:15:25;5.00;99.90
64939;DHT22;51453;47.738;7.420;2023-04-03T08:17:51;5.00;99.90
64939;DHT22;51453;47.738;7.420;2023-04-03T08:20:17;5.10;99.90
64939;DHT22;51453;47.738;7.420;2023-04-03T08:22:42;5.10;99.90
64939;DHT22;51453;47.738;7.420;2023-04-03T08:25:08;5.10;99.90
64939;DHT22;51453;47.738;7.420;2023-04-03T08:27:34;5.30;99.90
64939;DHT22;51453;47.738;7.420;2023-04-03T08:30:00;5.50;99.90
64939;DHT22;51453;47.738;7.420;2023-04-03T08:32:26;5.50;99.90
64939;DHT22;51453;47.738;7.420;2023-04-03T08:34:53;5.60;99.90
64939;DHT22;51453;47.738;7.420;2023-04-03T08:37:18;5.70;99.90
64939;DHT22;51453;47.738;7.420;2023-04-03T08:39:44;5.90;99.90
64939;DHT22;51453;47.738;7.420;2023-04-03T08:45:12;6.00;99.90
64939;DHT22;51453;47.738;7.420;2023-04-03T08:47:46;6.10;99.90
64939;DHT22;51453;47.738;7.420;2023-04-03T08:50:19;6.40;99.90
64939;DHT22;51453;47.738;7.420;2023-04-03T08:52:56;6.60;99.90
64939;DHT22;51453;47.738;7.420;2023-04-03T08:55:26;6.80;99.90
64939;DHT22;51453;47.738;7.420;2023-04-03T09:00:52;7.30;99.90
64939;DHT22;51453;47.738;7.420;2023-04-03T09:03:20;7.60;99.90
64939;DHT22;51453;47.738;7.420;2023-04-03T09:08:28;7.90;99.90
64939;DHT22;51453;47.738;7.420;2023-04-03T09:16:58;8.10;99.90
64939;DHT22;51453;47.738;7.420;2023-04-03T09:22:13;8.40;99.90
64939;DHT22;51453;47.738;7.420;2023-04-03T09:24:39;8.40;99.90
64939;DHT22;51453;47.738;7.420;2023-04-03T09:27:09;8.30;99.90
64939;DHT22;51453;47.738;7.420;2023-04-03T09:29:41;8.30;99.90
64939;DHT22;51453;47.738;7.420;2023-04-03T09:34:53;8.60;99.90
64939;DHT22;51453;47.738;7.420;2023-04-03T09:37:38;8.80;99.90
64939;DHT22;51453;47.738;7.420;2023-04-03T09:40:05;8.50;99.90
64939;DHT22;51453;47.738;7.420;2023-04-03T09:42:31;8.30;99.90
64939;DHT22;51453;47.738;7.420;2023-04-03T09:45:00;8.20;99.90
64939;DHT22;51453;47.738;7.420;2023-04-03T09:52:44;8.40;99.90
64939;DHT22;51453;47.738;7.420;2023-04-03T09:55:24;8.50;99.90
64939;DHT22;51453;47.738;7.420;2023-04-03T09:57:58;8.50;99.90
64939;DHT22;51453;47.738;7.420;2023-04-03T10:02:58;8.30;99.90
64939;DHT22;51453;47.738;7.420;2023-04-03T10:05:37;8.50;99.90
64939;DHT22;51453;47.738;7.420;2023-04-03T10:08:28;8.70;99.90
64939;DHT22;51453;47.738;7.420;2023-04-03T10:11:12;8.70;99.90
64939;DHT22;51453;47.738;7.420;2023-04-03T10:13:55;8.30;99.90
64939;DHT22;51453;47.738;7.420;2023-04-03T10:19:36;7.80;99.90
64939;DHT22;51453;47.738;7.420;2023-04-03T10:30:48;7.30;99.90
64939;DHT22;51453;47.738;7.420;2023-04-03T10:33:27;7.30;99.90
64939;DHT22;51453;47.738;7.420;2023-04-03T10:44:36;7.50;99.90
64939;DHT22;51453;47.738;7.420;2023-04-03T10:47:19;7.60;99.90
64939;DHT22;51453;47.738;7.420;2023-04-03T10:52:24;7.80;99.90
64939;DHT22;51453;47.738;7.420;2023-04-03T10:57:39;8.20;99.90
64939;DHT22;51453;47.738;7.420;2023-04-03T11:00:14;8.40;99.90
64939;DHT22;51453;47.738;7.420;2023-04-03T11:02:56;8.50;99.90
64939;DHT22;51453;47.738;7.420;2023-04-03T11:05:44;8.60;99.90
64939;DHT22;51453;47.738;7.420;2023-04-03T11:10:58;9.20;99.90
64939;DHT22;51453;47.738;7.420;2023-04-03T11:16:21;9.70;99.90
64939;DHT22;51453;47.738;7.420;2023-04-03T11:21:47;9.90;99.90
64939;DHT22;51453;47.738;7.420;2023-04-03T11:24:27;9.80;99.90
64939;DHT22;51453;47.738;7.420;2023-04-03T11:26:56;9.90;99.90
64939;DHT22;51453;47.738;7.420;2023-04-03T11:29:34;10.10;99.90
64939;DHT22;51453;47.738;7.420;2023-04-03T11:37:05;10.40;99.90
64939;DHT22;51453;47.738;7.420;2023-04-03T11:39:36;10.60;99.90
64939;DHT22;51453;47.738;7.420;2023-04-03T11:42:29;10.60;99.90
64939;DHT22;51453;47.738;7.420;2023-04-03T11:47:57;10.70;99.90
64939;DHT22;51453;47.738;7.420;2023-04-03T12:26:46;9.40;99.90
64939;DHT22;51453;47.738;7.420;2023-04-03T12:37:39;9.10;99.90
64939;DHT22;51453;47.738;7.420;2023-04-03T12:40:35;9.20;99.90
64939;DHT22;51453;47.738;7.420;2023-04-03T12:48:56;9.50;99.90
64939;DHT22;51453;47.738;7.420;2023-04-03T12:51:42;9.60;99.90
64939;DHT22;51453;47.738;7.420;2023-04-03T12:54:35;9.70;99.90
64939;DHT22;51453;47.738;7.420;2023-04-03T12:57:24;9.80;99.90
64939;DHT22;51453;47.738;7.420;2023-04-03T12:59:50;10.00;99.90
64939;DHT22;51453;47.738;7.420;2023-04-03T13:02:29;9.80;99.90
64939;DHT22;51453;47.738;7.420;2023-04-03T13:04:58;9.70;99.90
64939;DHT22;51453;47.738;7.420;2023-04-03T13:10:25;9.70;99.90
64939;DHT22;51453;47.738;7.420;2023-04-03T13:15:28;9.30;99.90
64939;DHT22;51453;47.738;7.420;2023-04-03T13:17:55;9.40;99.90
64939;DHT22;51453;47.738;7.420;2023-04-03T13:20:29;9.40;99.90
64939;DHT22;51453;47.738;7.420;2023-04-03T13:23:21;9.50;99.90
64939;DHT22;51453;47.738;7.420;2023-04-03T13:25:49;9.90;99.90
64939;DHT22;51453;47.738;7.420;2023-04-03T13:28:21;10.20;99.90
64939;DHT22;51453;47.738;7.420;2023-04-03T13:33:26;9.80;99.90
64939;DHT22;51453;47.738;7.420;2023-04-03T13:35:58;9.40;99.90
64939;DHT22;51453;47.738;7.420;2023-04-03T13:38:29;9.40;99.90
64939;DHT22;51453;47.738;7.420;2023-04-03T13:41:03;9.20;99.90
64939;DHT22;51453;47.738;7.420;2023-04-03T13:43:35;9.10;99.90
64939;DHT22;51453;47.738;7.420;2023-04-03T13:48:45;9.40;99.90
64939;DHT22;51453;47.738;7.420;2023-04-03T13:53:46;9.30;99.90
64939;DHT22;51453;47.738;7.420;2023-04-03T13:56:26;9.20;99.90
64939;DHT22;51453;47.738;7.420;2023-04-03T14:04:44;9.60;99.90
64939;DHT22;51453;47.738;7.420;2023-04-03T14:07:15;9.60;99.90
64939;DHT22;51453;47.738;7.420;2023-04-03T14:09:42;9.50;99.90
64939;DHT22;51453;47.738;7.420;2023-04-03T14:12:17;9.80;99.90
64939;DHT22;51453;47.738;7.420;2023-04-03T14:14:43;9.80;99.90
64939;DHT22;51453;47.738;7.420;2023-04-03T14:17:20;9.80;99.90
64939;DHT22;51453;47.738;7.420;2023-04-03T14:19:48;9.90;99.90
64939;DHT22;51453;47.738;7.420;2023-04-03T14:22:20;9.80;99.90
64939;DHT22;51453;47.738;7.420;2023-04-03T14:24:48;9.50;99.90
64939;DHT22;51453;47.738;7.420;2023-04-03T14:27:47;9.40;99.90
64939;DHT22;51453;47.738;7.420;2023-04-03T14:30:27;9.30;99.90
64939;DHT22;51453;47.738;7.420;2023-04-03T14:32:53;9.30;99.90
64939;DHT22;51453;47.738;7.420;2023-04-03T14:35:19;9.30;99.90
64939;DHT22;51453;47.738;7.420;2023-04-03T14:37:46;9.30;99.90
64939;DHT22;51453;47.738;7.420;2023-04-03T14:40:17;9.40;99.90
64939;DHT22;51453;47.738;7.420;2023-04-03T14:42:43;9.50;99.90
64939;DHT22;51453;47.738;7.420;2023-04-03T14:45:11;9.60;99.90
64939;DHT22;51453;47.738;7.420;2023-04-03T14:47:42;9.60;99.90
64939;DHT22;51453;47.738;7.420;2023-04-03T14:50:14;9.40;99.90
64939;DHT22;51453;47.738;7.420;2023-04-03T14:52:40;9.20;99.90
64939;DHT22;51453;47.738;7.420;2023-04-03T14:55:07;9.10;99.90
64939;DHT22;51453;47.738;7.420;2023-04-03T14:57:33;9.00;99.90
64939;DHT22;51453;47.738;7.420;2023-04-03T14:59:59;8.90;99.90
64939;DHT22;51453;47.738;7.420;2023-04-03T15:02:34;8.70;99.90
64939;DHT22;51453;47.738;7.420;2023-04-03T15:05:02;8.60;99.90
64939;DHT22;51453;47.738;7.420;2023-04-03T15:07:31;8.50;99.90
64939;DHT22;51453;47.738;7.420;2023-04-03T15:10:00;8.60;99.90
64939;DHT22;51453;47.738;7.420;2023-04-03T15:12:27;8.60;99.90
64939;DHT22;51453;47.738;7.420;2023-04-03T15:14:52;8.50;99.90
64939;DHT22;51453;47.738;7.420;2023-04-03T15:17:21;8.50;99.90
64939;DHT22;51453;47.738;7.420;2023-04-03T15:19:47;8.50;99.90
64939;DHT22;51453;47.738;7.420;2023-04-03T15:22:18;8.60;99.90
64939;DHT22;51453;47.738;7.420;2023-04-03T15:24:44;8.60;99.90
64939;DHT22;51453;47.738;7.420;2023-04-03T15:27:11;8.50;99.90
64939;DHT22;51453;47.738;7.420;2023-04-03T15:29:38;8.40;99.90
64939;DHT22;51453;47.738;7.420;2023-04-03T15:32:05;8.30;99.90
64939;DHT22;51453;47.738;7.420;2023-04-03T15:34:30;8.30;99.90
64939;DHT22;51453;47.738;7.420;2023-04-03T15:36:56;8.30;99.90
64939;DHT22;51453;47.738;7.420;2023-04-03T15:39:22;8.30;99.90
64939;DHT22;51453;47.738;7.420;2023-04-03T15:41:48;8.20;99.90
64939;DHT22;51453;47.738;7.420;2023-04-03T15:44:14;8.20;99.90
64939;DHT22;51453;47.738;7.420;2023-04-03T15:46:43;8.20;99.90
64939;DHT22;51453;47.738;7.420;2023-04-03T15:49:09;8.10;99.90
64939;DHT22;51453;47.738;7.420;2023-04-03T15:51:35;8.00;99.90
64939;DHT22;51453;47.738;7.420;2023-04-03T15:54:01;8.00;99.90
64939;DHT22;51453;47.738;7.420;2023-04-03T15:56:26;8.00;99.90
64939;DHT22;51453;47.738;7.420;2023-04-03T15:58:52;7.90;99.90
64939;DHT22;51453;47.738;7.420;2023-04-03T16:01:18;7.90;99.90
64939;DHT22;51453;47.738;7.420;2023-04-03T16:03:44;7.80;99.90
64939;DHT22;51453;47.738;7.420;2023-04-03T16:06:17;7.80;99.90
64939;DHT22;51453;47.738;7.420;2023-04-03T16:08:47;7.80;99.90
64939;DHT22;51453;47.738;7.420;2023-04-03T16:11:14;7.80;99.90
64939;DHT22;51453;47.738;7.420;2023-04-03T16:13:40;7.70;99.90
64939;DHT22;51453;47.738;7.420;2023-04-03T16:16:06;7.70;99.90
64939;DHT22;51453;47.738;7.420;2023-04-03T16:18:34;7.60;99.90
64939;DHT22;51453;47.738;7.420;2023-04-03T16:21:00;7.60;99.90
64939;DHT22;51453;47.738;7.420;2023-04-03T16:23:26;7.60;99.90
64939;DHT22;51453;47.738;7.420;2023-04-03T16:25:52;7.60;99.90
64939;DHT22;51453;47.738;7.420;2023-04-03T16:28:18;7.60;99.90
64939;DHT22;51453;47.738;7.420;2023-04-03T16:30:45;7.60;99.90
64939;DHT22;51453;47.738;7.420;2023-04-03T16:33:12;7.60;99.90
64939;DHT22;51453;47.738;7.420;2023-04-03T16:35:38;7.60;99.90
64939;DHT22;51453;47.738;7.420;2023-04-03T16:38:04;7.60;99.90
64939;DHT22;51453;47.738;7.420;2023-04-03T16:40:30;7.60;99.90
64939;DHT22;51453;47.738;7.420;2023-04-03T16:42:56;7.60;99.90
64939;DHT22;51453;47.738;7.420;2023-04-03T16:45:22;7.50;99.90
64939;DHT22;51453;47.738;7.420;2023-04-03T16:47:47;7.50;99.90
64939;DHT22;51453;47.738;7.420;2023-04-03T16:50:13;7.50;99.90
64939;DHT22;51453;47.738;7.420;2023-04-03T16:52:39;7.50;99.90
64939;DHT22;51453;47.738;7.420;2023-04-03T16:55:05;7.50;99.90
64939;DHT22;51453;47.738;7.420;2023-04-03T16:57:31;7.50;99.90
64939;DHT22;51453;47.738;7.420;2023-04-03T16:59:57;7.50;99.90
64939;DHT22;51453;47.738;7.420;2023-04-03T17:02:23;7.40;99.90
64939;DHT22;51453;47.738;7.420;2023-04-03T17:04:50;7.50;99.90
64939;DHT22;51453;47.738;7.420;2023-04-03T17:07:18;7.40;99.90
64939;DHT22;51453;47.738;7.420;2023-04-03T17:09:43;7.40;99.90
64939;DHT22;51453;47.738;7.420;2023-04-03T17:12:10;7.40;99.90
64939;DHT22;51453;47.738;7.420;2023-04-03T17:14:35;7.40;99.90
64939;DHT22;51453;47.738;7.420;2023-04-03T17:17:02;7.40;99.90
64939;DHT22;51453;47.738;7.420;2023-04-03T17:19:29;7.30;99.90
64939;DHT22;51453;47.738;7.420;2023-04-03T17:21:55;7.30;99.90
64939;DHT22;51453;47.738;7.420;2023-04-03T17:24:21;7.30;99.90
64939;DHT22;51453;47.738;7.420;2023-04-03T17:26:47;7.20;99.90
64939;DHT22;51453;47.738;7.420;2023-04-03T17:29:12;7.20;99.90
64939;DHT22;51453;47.738;7.420;2023-04-03T17:31:38;7.20;99.90
64939;DHT22;51453;47.738;7.420;2023-04-03T17:34:04;7.10;99.90
64939;DHT22;51453;47.738;7.420;2023-04-03T17:36:31;7.10;99.90
64939;DHT22;51453;47.738;7.420;2023-04-03T17:38:57;7.10;99.90
64939;DHT22;51453;47.738;7.420;2023-04-03T17:41:23;7.10;99.90
64939;DHT22;51453;47.738;7.420;2023-04-03T17:43:49;7.10;99.90
64939;DHT22;51453;47.738;7.420;2023-04-03T17:46:15;7.10;99.90
64939;DHT22;51453;47.738;7.420;2023-04-03T17:48:42;7.00;99.90
64939;DHT22;51453;47.738;7.420;2023-04-03T17:51:13;7.00;99.90
64939;DHT22;51453;47.738;7.420;2023-04-03T17:53:39;7.00;99.90
64939;DHT22;51453;47.738;7.420;2023-04-03T17:56:09;6.90;99.90
64939;DHT22;51453;47.738;7.420;2023-04-03T17:58:36;6.90;99.90
64939;DHT22;51453;47.738;7.420;2023-04-03T18:01:13;6.80;99.90
64939;DHT22;51453;47.738;7.420;2023-04-03T18:03:40;6.80;99.90
64939;DHT22;51453;47.738;7.420;2023-04-03T18:06:08;6.80;99.90
64939;DHT22;51453;47.738;7.420;2023-04-03T18:08:39;6.70;99.90
64939;DHT22;51453;47.738;7.420;2023-04-03T18:11:05;6.80;99.90
64939;DHT22;51453;47.738;7.420;2023-04-03T18:13:31;6.70;99.90
64939;DHT22;51453;47.738;7.420;2023-04-03T18:15:57;6.70;99.90
64939;DHT22;51453;47.738;7.420;2023-04-03T18:18:23;6.70;99.90
64939;DHT22;51453;47.738;7.420;2023-04-03T18:20:49;6.70;99.90
64939;DHT22;51453;47.738;7.420;2023-04-03T18:23:16;6.70;99.90